createdAt,value
2018-08-06T00:00:25.858Z,39.28
2018-08-06T00:02:54.418Z,39.94
2018-08-06T00:05:23.036Z,40.12
2018-08-06T00:07:51.763Z,39.68
2018-08-06T00:10:22.048Z,40.00
2018-08-06T00:12:50.706Z,40.11
2018-08-06T00:15:19.615Z,39.81
2018-08-06T00:17:48.199Z,39.13
2018-08-06T00:20:17.495Z,40.05
2018-08-06T00:22:46.248Z,39.23
2018-08-06T00:25:16.054Z,39.38
2018-08-06T00:27:44.958Z,39.24
2018-08-06T00:30:14.695Z,38.78
2018-08-06T00:32:44.148Z,39.61
2018-08-06T00:35:13.258Z,39.19
2018-08-06T00:37:41.874Z,38.94
2018-08-06T00:40:13.093Z,39.67
2018-08-06T00:42:42.263Z,39.69
2018-08-06T00:45:12.485Z,39.24
2018-08-06T00:47:40.984Z,39.20
2018-08-06T00:50:09.860Z,39.59
2018-08-06T00:52:38.870Z,39.80
2018-08-06T00:55:09.982Z,39.56
2018-08-06T00:57:38.692Z,39.86
2018-08-06T01:00:09.247Z,39.22
2018-08-06T01:02:37.858Z,39.64
2018-08-06T01:05:07.636Z,39.46
2018-08-06T01:07:36.517Z,40.00
2018-08-06T01:10:07.002Z,40.00
2018-08-06T01:12:36.576Z,39.45
2018-08-06T01:15:06.224Z,40.21
2018-08-06T01:17:35.172Z,39.82
2018-08-06T01:20:04.993Z,40.75
2018-08-06T01:22:33.745Z,40.54
2018-08-06T01:25:02.596Z,40.94
2018-08-06T01:27:31.681Z,40.89
2018-08-06T01:30:00.708Z,41.40
2018-08-06T01:32:29.651Z,41.52
2018-08-06T01:34:58.610Z,41.86
2018-08-06T01:37:27.577Z,41.41
2018-08-06T01:39:56.485Z,41.31
2018-08-06T01:42:25.899Z,42.24
2018-08-06T01:44:54.714Z,42.27
2018-08-06T01:47:24.011Z,41.75
2018-08-06T01:49:52.541Z,42.34
2018-08-06T01:52:21.849Z,42.04
2018-08-06T01:54:50.872Z,42.08
2018-08-06T01:57:20.601Z,41.98
2018-08-06T01:59:49.860Z,42.45
2018-08-06T02:02:19.111Z,42.44
2018-08-06T02:04:48.042Z,42.58
2018-08-06T02:07:17.091Z,43.22
2018-08-06T02:09:46.069Z,42.90
2018-08-06T02:12:14.975Z,43.39
2018-08-06T02:14:43.633Z,43.38
2018-08-06T02:17:12.287Z,42.90
2018-08-06T02:19:40.997Z,43.28
2018-08-06T02:22:09.662Z,43.70
2018-08-06T02:24:38.297Z,43.26
2018-08-06T02:27:07.061Z,43.75
2018-08-06T02:29:35.646Z,43.27
2018-08-06T02:32:04.272Z,43.52
2018-08-06T02:34:32.898Z,44.15
2018-08-06T02:37:01.508Z,43.36
2018-08-06T02:39:30.102Z,43.85
2018-08-06T02:41:58.737Z,43.89
2018-08-06T02:44:27.268Z,43.28
2018-08-06T02:46:55.938Z,43.68
2018-08-06T02:49:24.602Z,43.57
2018-08-06T02:51:53.216Z,44.48
2018-08-06T02:54:21.889Z,44.18
2018-08-06T02:56:51.127Z,43.89
2018-08-06T02:59:19.755Z,44.11
2018-08-06T03:01:48.408Z,43.81
2018-08-06T03:04:17.067Z,44.06
2018-08-06T03:06:45.757Z,44.13
2018-08-06T03:09:14.343Z,44.03
2018-08-06T03:11:43.098Z,44.06
2018-08-06T03:14:11.795Z,44.18
2018-08-06T03:16:40.638Z,43.96
2018-08-06T03:19:09.156Z,44.15
2018-08-06T03:21:37.707Z,44.12
2018-08-06T03:24:06.288Z,44.83
2018-08-06T03:26:35.006Z,44.26
2018-08-06T03:29:03.591Z,44.80
2018-08-06T03:31:32.233Z,44.34
2018-08-06T03:34:00.853Z,44.48
2018-08-06T03:36:29.481Z,44.21
2018-08-06T03:38:58.119Z,45.06
2018-08-06T03:41:26.909Z,45.15
2018-08-06T03:43:55.732Z,44.66
2018-08-06T03:46:24.373Z,44.96
2018-08-06T03:48:52.957Z,45.14
2018-08-06T03:51:21.577Z,44.49
2018-08-06T03:53:50.256Z,44.49
2018-08-06T03:56:20.733Z,44.40
2018-08-06T03:58:50.541Z,44.40
2018-08-06T04:01:19.225Z,44.79
2018-08-06T04:03:47.900Z,44.72
2018-08-06T04:06:16.896Z,44.67
2018-08-06T04:08:45.508Z,44.86
2018-08-06T04:11:14.159Z,44.51
2018-08-06T04:13:43.493Z,44.24
2018-08-06T04:16:12.196Z,44.64
2018-08-06T04:18:40.812Z,45.04
2018-08-06T04:21:09.377Z,44.37
2018-08-06T04:23:38.012Z,44.51
2018-08-06T04:26:06.702Z,45.21
2018-08-06T04:28:35.280Z,44.77
2018-08-06T04:31:03.939Z,45.77
2018-08-06T04:33:32.651Z,45.59
2018-08-06T04:36:01.380Z,45.41
2018-08-06T04:38:30.239Z,44.80
2018-08-06T04:40:58.924Z,45.03
2018-08-06T04:43:27.612Z,44.58
2018-08-06T04:45:56.239Z,44.29
2018-08-06T04:48:25.835Z,45.24
2018-08-06T04:50:54.538Z,44.22
2018-08-06T04:53:23.214Z,44.42
2018-08-06T04:55:51.895Z,44.21
2018-08-06T04:58:20.619Z,44.69
2018-08-06T05:00:49.306Z,44.23
2018-08-06T05:03:17.956Z,44.61
2018-08-06T05:05:46.616Z,45.07
2018-08-06T05:08:15.524Z,44.51
2018-08-06T05:10:44.272Z,44.39
2018-08-06T05:13:13.085Z,44.64
2018-08-06T05:15:41.978Z,44.79
2018-08-06T05:18:10.679Z,44.31
2018-08-06T05:20:39.525Z,44.29
2018-08-06T05:23:08.298Z,44.49
2018-08-06T05:25:36.996Z,44.52
2018-08-06T05:28:06.022Z,44.66
2018-08-06T05:30:34.739Z,43.47
2018-08-06T05:33:03.384Z,44.09
2018-08-06T05:35:32.010Z,43.63
2018-08-06T05:38:00.660Z,43.43
2018-08-06T05:40:29.485Z,43.82
2018-08-06T05:42:58.112Z,43.92
2018-08-06T05:45:26.737Z,44.16
2018-08-06T05:47:55.341Z,44.42
2018-08-06T05:50:24.029Z,44.11
2018-08-06T05:52:52.932Z,44.21
2018-08-06T05:55:21.501Z,43.37
2018-08-06T05:57:50.223Z,42.69
2018-08-06T06:00:19.463Z,40.83
2018-08-06T06:02:48.289Z,41.62
2018-08-06T06:05:16.989Z,41.10
2018-08-06T06:07:45.745Z,40.31
2018-08-06T06:10:15.667Z,38.33
2018-08-06T06:12:44.285Z,38.84
2018-08-06T06:15:14.553Z,37.45
2018-08-06T06:17:44.050Z,36.86
2018-08-06T06:20:12.694Z,36.95
2018-08-06T06:22:41.362Z,33.38
2018-08-06T06:25:11.715Z,33.40
2018-08-06T06:27:40.406Z,32.07
2018-08-06T06:30:11.698Z,31.18
2018-08-06T06:32:40.476Z,29.65
2018-08-06T06:35:09.112Z,28.69
2018-08-06T06:37:37.899Z,28.07
2018-08-06T06:40:06.730Z,27.33
2018-08-06T06:42:35.380Z,27.31
2018-08-06T06:45:04.735Z,26.15
2018-08-06T06:47:33.454Z,25.49
2018-08-06T06:50:02.052Z,23.32
2018-08-06T06:52:30.824Z,23.62
2018-08-06T06:54:59.485Z,22.44
2018-08-06T06:57:28.212Z,22.60
2018-08-06T06:59:57.032Z,22.98
2018-08-06T07:02:28.449Z,23.45
2018-08-06T07:04:57.400Z,23.03
2018-08-06T07:07:26.793Z,22.73
2018-08-06T07:09:55.638Z,21.35
2018-08-06T07:12:25.285Z,22.46
2018-08-06T07:14:53.989Z,21.21
2018-08-06T07:17:22.616Z,20.44
2018-08-06T07:19:51.274Z,20.96
2018-08-06T07:22:19.876Z,20.71
2018-08-06T07:24:48.766Z,20.10
2018-08-06T07:27:17.623Z,20.39
2018-08-06T07:29:46.248Z,19.46
2018-08-06T07:32:14.863Z,20.07
2018-08-06T07:34:43.471Z,19.55
2018-08-06T07:37:12.095Z,18.67
2018-08-06T07:39:40.716Z,19.24
2018-08-06T07:42:12.433Z,18.34
2018-08-06T07:44:40.978Z,18.87
2018-08-06T07:47:09.504Z,18.39
2018-08-06T07:49:38.394Z,18.67
2018-08-06T07:52:07.037Z,18.15
2018-08-06T07:54:35.674Z,17.09
2018-08-06T07:57:04.362Z,16.34
2018-08-06T07:59:32.969Z,16.94
2018-08-06T08:02:01.590Z,16.36
2018-08-06T08:04:30.303Z,16.47
2018-08-06T08:06:58.891Z,16.01
2018-08-06T08:09:27.566Z,15.36
2018-08-06T08:11:56.301Z,15.48
2018-08-06T08:14:25.212Z,15.12
2018-08-06T08:16:53.808Z,15.56
2018-08-06T08:19:22.538Z,16.03
2018-08-06T08:21:51.223Z,16.30
2018-08-06T08:24:19.838Z,15.39
2018-08-06T08:26:48.499Z,15.59
2018-08-06T08:29:17.152Z,15.54
2018-08-06T08:31:45.785Z,15.53
2018-08-06T08:34:14.598Z,15.20
2018-08-06T08:36:43.193Z,15.42
2018-08-06T08:39:12.874Z,15.69
2018-08-06T08:41:41.604Z,15.15
2018-08-06T08:44:10.180Z,15.20
2018-08-06T08:46:38.661Z,15.70
2018-08-06T08:49:07.203Z,15.19
2018-08-06T08:51:35.854Z,14.44
2018-08-06T08:54:04.441Z,13.85
2018-08-06T08:56:33.025Z,13.79
2018-08-06T08:59:01.597Z,13.91
2018-08-06T09:01:30.148Z,13.48
2018-08-06T09:03:58.712Z,13.18
2018-08-06T09:06:27.288Z,13.00
2018-08-06T09:08:56.017Z,13.19
2018-08-06T09:11:26.876Z,13.25
2018-08-06T09:13:58.167Z,13.40
2018-08-06T09:16:27.054Z,12.93
2018-08-06T09:18:55.645Z,12.06
2018-08-06T09:21:24.288Z,12.24
2018-08-06T09:23:52.867Z,12.01
2018-08-06T09:26:21.629Z,11.93
2018-08-06T09:28:50.231Z,12.17
2018-08-06T09:31:19.038Z,12.28
2018-08-06T09:34:08.752Z,11.21
2018-08-06T09:36:42.316Z,11.45
2018-08-06T09:39:30.202Z,11.13
2018-08-06T09:45:03.817Z,10.92
2018-08-06T09:47:41.110Z,9.78
2018-08-06T09:50:11.767Z,9.31
2018-08-06T09:52:40.768Z,9.80
2018-08-06T09:55:12.720Z,9.08
2018-08-06T09:57:41.876Z,9.48
2018-08-06T10:00:18.513Z,10.97
2018-08-06T10:02:47.567Z,10.95
2018-08-06T10:05:16.232Z,11.08
2018-08-06T10:07:45.363Z,10.18
2018-08-06T10:10:14.352Z,10.16
2018-08-06T10:12:43.720Z,9.74
2018-08-06T10:15:12.780Z,9.52
2018-08-06T10:17:42.976Z,8.35
2018-08-06T10:20:13.560Z,8.27
2018-08-06T10:22:42.155Z,8.12
2018-08-06T10:25:12.108Z,7.85
2018-08-06T10:27:41.650Z,7.76
2018-08-06T10:30:14.268Z,7.25
2018-08-06T10:32:42.946Z,7.24
2018-08-06T10:35:12.586Z,7.12
2018-08-06T10:37:41.185Z,6.33
2018-08-06T10:40:13.485Z,7.02
2018-08-06T10:42:42.655Z,6.35
2018-08-06T10:45:13.490Z,6.47
2018-08-06T10:47:42.380Z,6.10
2018-08-06T10:50:11.067Z,6.80
2018-08-06T10:52:39.826Z,6.24
2018-08-06T10:55:09.302Z,5.44
2018-08-06T10:57:38.472Z,6.03
2018-08-06T11:00:11.912Z,5.72
2018-08-06T11:02:40.607Z,5.21
2018-08-06T11:05:10.344Z,5.23
2018-08-06T11:07:39.128Z,4.30
2018-08-06T11:10:10.657Z,4.84
2018-08-06T11:12:39.666Z,4.12
2018-08-06T11:15:12.917Z,4.42
2018-08-06T11:17:41.529Z,4.67
2018-08-06T11:20:11.868Z,4.56
2018-08-06T11:22:40.932Z,4.70
2018-08-06T11:25:11.035Z,4.39
2018-08-06T11:27:39.630Z,4.63
2018-08-06T11:30:09.981Z,4.64
2018-08-06T11:32:40.867Z,5.35
2018-08-06T11:35:14.165Z,5.41
2018-08-06T11:37:43.278Z,5.84
2018-08-06T11:40:20.135Z,5.30
2018-08-06T11:42:53.569Z,6.73
2018-08-06T11:45:29.516Z,6.83
2018-08-06T11:48:07.318Z,7.25
2018-08-06T11:50:37.625Z,8.13
2018-08-06T11:53:23.298Z,8.37
2018-08-06T11:55:52.274Z,10.01
2018-08-06T11:58:20.880Z,10.50
2018-08-06T12:00:49.497Z,11.02
2018-08-06T12:03:18.094Z,12.28
2018-08-06T12:05:46.753Z,12.51
2018-08-06T12:08:15.387Z,13.17
2018-08-06T12:10:44.966Z,13.29
2018-08-06T12:13:13.593Z,13.28
2018-08-06T12:15:42.138Z,14.05
2018-08-06T12:18:10.709Z,14.81
2018-08-06T12:20:39.267Z,14.50
2018-08-06T12:23:07.884Z,14.78
2018-08-06T12:25:36.454Z,14.12
2018-08-06T12:28:05.052Z,14.67
2018-08-06T12:30:33.624Z,15.16
2018-08-06T12:33:02.276Z,14.06
2018-08-06T12:35:31.076Z,14.77
2018-08-06T12:37:59.673Z,14.83
2018-08-06T12:40:28.245Z,15.56
2018-08-06T12:42:56.837Z,15.08
2018-08-06T12:45:25.472Z,15.39
2018-08-06T12:47:54.108Z,15.10
2018-08-06T12:50:22.727Z,15.43
2018-08-06T12:52:51.328Z,15.25
2018-08-06T12:55:19.884Z,16.14
2018-08-06T12:57:48.614Z,15.88
2018-08-06T13:00:20.570Z,15.83
2018-08-06T13:02:49.680Z,15.50
2018-08-06T13:05:18.844Z,15.59
2018-08-06T13:07:47.451Z,15.03
2018-08-06T13:10:16.128Z,15.00
2018-08-06T13:12:44.903Z,15.67
2018-08-06T13:15:14.512Z,15.23
2018-08-06T13:17:43.088Z,14.94
2018-08-06T13:20:11.652Z,15.29
2018-08-06T13:22:40.387Z,14.81
2018-08-06T13:25:10.449Z,15.37
2018-08-06T13:27:39.050Z,15.09
2018-08-06T13:30:12.188Z,15.08
2018-08-06T13:32:41.042Z,14.99
2018-08-06T13:35:09.669Z,14.16
2018-08-06T13:37:38.429Z,14.71
2018-08-06T13:40:07.693Z,14.46
2018-08-06T13:42:36.460Z,13.99
2018-08-06T13:45:06.766Z,13.86
2018-08-06T13:47:35.320Z,13.78
2018-08-06T13:50:03.985Z,13.81
2018-08-06T13:52:32.616Z,14.04
2018-08-06T13:55:01.204Z,13.59
2018-08-06T13:57:29.847Z,13.38
2018-08-06T13:59:58.549Z,13.79
2018-08-06T14:02:27.151Z,13.34
2018-08-06T14:04:55.677Z,14.30
2018-08-06T14:07:24.326Z,14.39
2018-08-06T14:09:52.985Z,14.56
2018-08-06T14:12:21.607Z,14.00
2018-08-06T14:14:50.207Z,14.92
2018-08-06T14:17:18.773Z,14.48
2018-08-06T14:19:47.316Z,14.55
2018-08-06T14:22:15.864Z,14.89
2018-08-06T14:24:44.459Z,14.80
2018-08-06T14:27:13.105Z,14.61
2018-08-06T14:29:41.666Z,14.95
2018-08-06T14:32:10.247Z,14.97
2018-08-06T14:34:38.889Z,14.94
2018-08-06T14:37:07.717Z,15.28
2018-08-06T14:39:36.254Z,14.81
2018-08-06T14:42:04.818Z,15.04
2018-08-06T14:44:33.455Z,15.76
2018-08-06T14:47:02.095Z,15.68
2018-08-06T14:49:30.698Z,15.73
2018-08-06T14:51:59.463Z,15.36
2018-08-06T14:54:28.120Z,16.05
2018-08-06T14:56:56.714Z,16.17
2018-08-06T14:59:25.396Z,16.07
2018-08-06T15:01:53.995Z,15.80
2018-08-06T15:04:22.543Z,15.31
2018-08-06T15:06:51.226Z,16.00
2018-08-06T15:09:19.868Z,15.34
2018-08-06T15:11:48.604Z,15.94
2018-08-06T15:14:17.283Z,15.72
2018-08-06T15:16:45.868Z,15.81
2018-08-06T15:19:14.519Z,16.14
2018-08-06T15:21:43.206Z,15.81
2018-08-06T15:24:11.905Z,16.02
2018-08-06T15:26:40.466Z,15.97
2018-08-06T15:29:09.140Z,15.75
2018-08-06T15:31:37.777Z,15.98
2018-08-06T15:34:06.381Z,15.19
2018-08-06T15:36:35.060Z,15.15
2018-08-06T15:39:04.026Z,15.47
2018-08-06T15:41:32.597Z,15.86
2018-08-06T15:44:01.210Z,15.17
2018-08-06T15:46:29.862Z,15.13
2018-08-06T15:48:58.657Z,14.95
2018-08-06T15:51:27.328Z,15.50
2018-08-06T15:53:55.973Z,15.41
2018-08-06T15:56:24.572Z,14.88
2018-08-06T15:58:53.177Z,15.15
2018-08-06T16:01:22.245Z,15.50
2018-08-06T16:03:53.300Z,14.40
2018-08-06T16:06:22.181Z,15.62
2018-08-06T16:08:50.748Z,15.50
2018-08-06T16:11:19.260Z,15.30
2018-08-06T16:13:47.841Z,15.23
2018-08-06T16:16:16.463Z,15.51
2018-08-06T16:18:45.024Z,15.17
2018-08-06T16:21:13.558Z,15.45
2018-08-06T16:23:42.233Z,15.34
2018-08-06T16:26:10.768Z,15.30
2018-08-06T16:28:39.501Z,15.45
2018-08-06T16:31:08.169Z,15.34
2018-08-06T16:33:36.710Z,15.27
2018-08-06T16:36:05.308Z,15.14
2018-08-06T16:38:34.034Z,14.98
2018-08-06T16:41:02.662Z,15.75
2018-08-06T16:43:31.336Z,15.87
2018-08-06T16:46:00.013Z,15.76
2018-08-06T16:48:28.729Z,15.06
2018-08-06T16:50:57.346Z,15.21
2018-08-06T16:53:25.928Z,16.01
2018-08-06T16:55:54.490Z,15.48
2018-08-06T16:58:23.149Z,15.59
2018-08-06T17:00:51.766Z,15.92
2018-08-06T17:03:20.344Z,15.76
2018-08-06T17:05:48.892Z,15.22
2018-08-06T17:08:17.533Z,15.74
2018-08-06T17:10:46.125Z,15.05
2018-08-06T17:13:14.766Z,15.77
2018-08-06T17:15:43.291Z,16.16
2018-08-06T17:18:11.852Z,16.13
2018-08-06T17:20:40.638Z,15.59
2018-08-06T17:23:09.199Z,16.41
2018-08-06T17:25:37.838Z,16.25
2018-08-06T17:28:06.447Z,15.97
2018-08-06T17:30:35.184Z,16.54
2018-08-06T17:33:03.810Z,16.80
2018-08-06T17:35:32.541Z,15.91
2018-08-06T17:38:01.189Z,16.28
2018-08-06T17:40:29.838Z,16.44
2018-08-06T17:42:58.515Z,16.92
2018-08-06T17:45:27.283Z,16.56
2018-08-06T17:47:55.856Z,16.29
2018-08-06T17:50:24.573Z,16.49
2018-08-06T17:52:53.608Z,16.40
2018-08-06T17:55:23.110Z,16.45
2018-08-06T17:57:51.777Z,16.99
2018-08-06T18:00:20.831Z,17.68
2018-08-06T18:02:49.435Z,17.74
2018-08-06T18:05:19.672Z,17.31
2018-08-06T18:07:48.359Z,17.94
2018-08-06T18:10:17.841Z,17.87
2018-08-06T18:12:47.308Z,17.21
2018-08-06T18:15:16.310Z,18.32
2018-08-06T18:17:45.126Z,17.98
2018-08-06T18:20:16.533Z,18.02
2018-08-06T18:22:45.439Z,18.03
2018-08-06T18:25:15.989Z,18.73
2018-08-06T18:27:45.752Z,18.82
2018-08-06T18:30:16.249Z,18.26
2018-08-06T18:32:45.038Z,18.20
2018-08-06T18:35:15.057Z,18.94
2018-08-06T18:37:44.017Z,19.06
2018-08-06T18:40:13.614Z,17.84
2018-08-06T18:42:42.492Z,18.27
2018-08-06T18:45:16.380Z,18.21
2018-08-06T18:47:46.031Z,19.40
2018-08-06T18:50:15.645Z,19.29
2018-08-06T18:52:45.638Z,19.36
2018-08-06T18:55:15.248Z,19.58
2018-08-06T18:57:44.912Z,19.69
2018-08-06T19:00:18.324Z,19.25
2018-08-06T19:02:47.686Z,20.01
2018-08-06T19:05:16.908Z,20.70
2018-08-06T19:07:45.835Z,20.01
2018-08-06T19:10:17.101Z,20.47
2018-08-06T19:12:50.887Z,20.88
2018-08-06T19:15:19.801Z,21.31
2018-08-06T19:17:53.668Z,21.89
2018-08-06T19:20:22.975Z,21.62
2018-08-06T19:22:51.765Z,21.92
2018-08-06T19:25:25.577Z,22.02
2018-08-06T19:27:54.459Z,22.60
2018-08-06T19:30:27.450Z,22.48
2018-08-06T19:32:56.444Z,22.82
2018-08-06T19:35:25.406Z,22.77
2018-08-06T19:37:56.340Z,23.21
2018-08-06T19:40:25.513Z,23.04
2018-08-06T19:42:59.561Z,23.34
2018-08-06T19:45:28.436Z,23.49
2018-08-06T19:47:57.299Z,23.49
2018-08-06T19:50:31.142Z,23.97
2018-08-06T19:53:00.967Z,24.24
2018-08-06T19:55:34.824Z,24.60
2018-08-06T19:58:03.769Z,24.64
2018-08-06T20:00:32.711Z,24.34
2018-08-06T20:03:01.535Z,24.46
2018-08-06T20:05:30.449Z,24.44
2018-08-06T20:07:59.317Z,24.69
2018-08-06T20:10:28.151Z,24.69
2018-08-06T20:12:57.312Z,25.08
2018-08-06T20:15:26.284Z,25.52
2018-08-06T20:17:55.257Z,25.32
2018-08-06T20:20:25.278Z,26.02
2018-08-06T20:22:54.188Z,26.13
2018-08-06T20:25:29.928Z,26.62
2018-08-06T20:27:59.780Z,26.59
2018-08-06T20:30:28.808Z,25.66
2018-08-06T20:32:58.226Z,25.98
2018-08-06T20:35:27.409Z,26.20
2018-08-06T20:37:56.635Z,25.74
2018-08-06T20:40:26.645Z,27.14
2018-08-06T20:42:55.931Z,26.87
2018-08-06T20:45:25.847Z,26.98
2018-08-06T20:47:55.584Z,26.67
2018-08-06T20:50:25.133Z,27.15
2018-08-06T20:52:54.805Z,27.36
2018-08-06T20:55:23.952Z,26.62
2018-08-06T20:57:53.559Z,27.32
2018-08-06T21:00:27.035Z,27.41
2018-08-06T21:02:55.832Z,26.71
2018-08-06T21:05:24.668Z,27.87
2018-08-06T21:07:53.384Z,27.69
2018-08-06T21:10:22.327Z,28.07
2018-08-06T21:12:51.160Z,28.25
2018-08-06T21:15:19.925Z,27.11
2018-08-06T21:17:48.852Z,28.29
2018-08-06T21:20:18.836Z,27.86
2018-08-06T21:22:48.572Z,28.36
2018-08-06T21:25:17.484Z,28.12
2018-08-06T21:27:47.398Z,28.40
2018-08-06T21:30:19.060Z,29.36
2018-08-06T21:32:52.121Z,28.67
2018-08-06T21:35:21.896Z,29.46
2018-08-06T21:37:51.928Z,29.57
2018-08-06T21:40:21.628Z,28.61
2018-08-06T21:42:50.994Z,29.07
2018-08-06T21:45:20.232Z,29.82
2018-08-06T21:47:49.466Z,30.01
2018-08-06T21:50:18.427Z,30.60
2018-08-06T21:52:47.625Z,29.84
2018-08-06T21:55:16.732Z,30.07
2018-08-06T21:57:45.741Z,30.68
2018-08-06T22:00:25.729Z,30.30
2018-08-06T22:02:54.517Z,30.36
2018-08-06T22:05:23.269Z,30.45
2018-08-06T22:07:52.085Z,31.00
2018-08-06T22:10:20.989Z,30.94
2018-08-06T22:12:49.788Z,30.56
2018-08-06T22:15:18.748Z,30.42
2018-08-06T22:17:47.530Z,31.11
2018-08-06T22:20:16.385Z,30.74
2018-08-06T22:22:45.170Z,30.80
2018-08-06T22:25:14.037Z,31.78
2018-08-06T22:27:42.818Z,31.87
2018-08-06T22:30:12.122Z,31.14
2018-08-06T22:32:40.909Z,30.99
2018-08-06T22:35:11.586Z,31.20
2018-08-06T22:37:40.636Z,32.11
2018-08-06T22:40:11.047Z,32.03
2018-08-06T22:42:40.187Z,31.34
2018-08-06T22:45:10.000Z,31.52
2018-08-06T22:47:38.782Z,31.78
2018-08-06T22:50:09.166Z,32.07
2018-08-06T22:52:37.954Z,32.21
2018-08-06T22:55:07.136Z,31.73
2018-08-06T22:57:35.742Z,32.29
2018-08-06T23:00:05.333Z,31.92
2018-08-06T23:02:33.976Z,33.06
2018-08-06T23:05:02.671Z,32.85
2018-08-06T23:07:31.395Z,32.20
2018-08-06T23:10:00.130Z,33.17
2018-08-06T23:12:28.811Z,32.84
2018-08-06T23:14:57.512Z,32.92
2018-08-06T23:17:26.091Z,32.72
2018-08-06T23:19:54.841Z,32.88
2018-08-06T23:22:23.836Z,32.73
2018-08-06T23:24:52.512Z,33.86
2018-08-06T23:27:21.127Z,33.25
2018-08-06T23:29:49.880Z,33.29
2018-08-06T23:32:18.605Z,33.55
2018-08-06T23:34:47.300Z,33.49
2018-08-06T23:37:16.131Z,34.13
2018-08-06T23:39:44.793Z,33.56
2018-08-06T23:42:13.504Z,33.38
2018-08-06T23:44:42.228Z,34.28
2018-08-06T23:47:10.871Z,33.61
2018-08-06T23:49:39.669Z,33.62
2018-08-06T23:52:08.373Z,33.80
2018-08-06T23:54:37.028Z,34.61
2018-08-06T23:57:05.927Z,33.76
2018-08-06T23:59:34.589Z,33.90
